CheckWX is a tool to help pilots better visualize weather data.  It is not intended as a substitute for an official pre-flight weather briefing.

04:11:46 UTC

UUOO TAF
Voronezh International Airport
Voronezh, Russian Federation
TAF UUOO 041958Z 0421/0506 18003MPS 9999 SCT040

Jun-4@
21:00 UTC

Jun-4 @ 21:00 UTC

Jun-5@
06:00 UTC

Jun-5 @ 06:00 UTC

TAF UUOO 041958Z 0421/0506 18003MPS 9999 SCT040
Wind
  • 180° at 6 KTS
Cloud Levels
  • Scattered at 4,000' AGL